Time;durP1;ratioP1;P1;durP2;ratioP2;P2;SDS_P1;SDS_P2;PMS_P1;PMS_P2;Temp;Humidity;BMP_temperature;BMP_pressure;BME280_temperature;BME280_humidity;BME280_pressure;Samples;Min_cycle;Max_cycle;Signal;HPM_P1;HPM_P2
2020/12/15 00:00:27;;;;;;;17.20;13.38;;;;;;;9.77;55.18;100211.42;1764097;80;21198;-70
2020/12/15 00:02:55;;;;;;;18.12;13.80;;;;;;;9.77;55.17;100213.22;1778591;80;21378;-69
2020/12/15 00:05:22;;;;;;;16.90;12.80;;;;;;;9.76;55.17;100210.23;1782159;80;21187;-71
2020/12/15 00:07:49;;;;;;;18.82;13.18;;;;;;;9.77;55.12;100215.87;1788432;80;21031;-70
2020/12/15 00:10:18;;;;;;;18.32;13.55;;;;;;;9.76;55.12;100214.22;1764799;80;21223;-70
2020/12/15 00:12:46;;;;;;;16.32;13.28;;;;;;;9.76;55.08;100221.67;1763519;80;21111;-70
2020/12/15 00:15:13;;;;;;;15.13;12.80;;;;;;;9.76;55.07;100220.85;1793717;79;22097;-70
2020/12/15 00:17:41;;;;;;;19.45;14.33;;;;;;;9.76;55.05;100216.87;1761103;80;21167;-71
2020/12/15 00:20:10;;;;;;;15.32;13.60;;;;;;;9.75;55.05;100219.17;1782515;79;21107;-70
2020/12/15 00:22:37;;;;;;;16.60;13.40;;;;;;;9.74;55.05;100222.33;1770554;79;21119;-71
2020/12/15 00:25:05;;;;;;;15.40;12.43;;;;;;;9.75;55.01;100219.99;1769626;79;21127;-70
2020/12/15 00:27:32;;;;;;;15.58;12.55;;;;;;;9.74;54.99;100216.19;1775343;79;21667;-71
2020/12/15 00:30:01;;;;;;;14.87;13.25;;;;;;;9.75;54.99;100227.13;1789356;79;21181;-71
2020/12/15 00:32:29;;;;;;;17.48;13.20;;;;;;;9.73;54.96;100224.62;1791909;78;21117;-71
2020/12/15 00:34:57;;;;;;;16.52;12.95;;;;;;;9.73;54.94;100223.79;1763763;80;21145;-70
2020/12/15 00:37:24;;;;;;;17.20;13.75;;;;;;;9.73;54.92;100212.68;1764332;80;21594;-70
2020/12/15 00:39:51;;;;;;;16.50;13.15;;;;;;;9.73;54.92;100219.81;1747839;80;21449;-69
2020/12/15 00:42:19;;;;;;;18.07;12.98;;;;;;;9.73;54.92;100224.62;1762092;80;21147;-71
2020/12/15 00:44:47;;;;;;;16.05;13.78;;;;;;;9.72;54.91;100225.62;1780471;80;21202;-70
2020/12/15 00:47:15;;;;;;;16.90;13.25;;;;;;;9.73;54.88;100224.62;1781788;80;21112;-71
2020/12/15 00:49:43;;;;;;;15.18;12.28;;;;;;;9.74;54.85;100230.78;1768333;80;21389;-69
2020/12/15 00:52:10;;;;;;;15.88;12.90;;;;;;;9.74;54.83;100234.77;1765422;80;23584;-72
2020/12/15 00:54:38;;;;;;;16.52;12.98;;;;;;;9.73;54.83;100237.88;1778631;80;21226;-70
2020/12/15 00:57:06;;;;;;;15.08;12.55;;;;;;;9.73;54.81;100239.21;1763677;80;21177;-71
2020/12/15 00:59:33;;;;;;;15.90;12.35;;;;;;;9.73;54.80;100240.54;1788948;78;21119;-70
2020/12/15 01:02:02;;;;;;;15.08;12.65;;;;;;;9.73;54.77;100239.71;1797858;78;21164;-71
2020/12/15 01:04:30;;;;;;;17.20;12.33;;;;;;;9.72;54.78;100233.58;1809972;78;21355;-70
2020/12/15 01:06:58;;;;;;;15.75;12.93;;;;;;;9.73;54.74;100238.38;1776913;80;21201;-70
2020/12/15 01:09:25;;;;;;;15.10;12.65;;;;;;;9.71;54.73;100235.88;1785685;79;21195;-71
2020/12/15 01:11:53;;;;;;;16.15;12.98;;;;;;;9.72;54.73;100226.13;1768272;80;21156;-71
2020/12/15 01:14:23;;;;;;;14.80;12.30;;;;;;;9.73;54.72;100229.10;1771720;80;21787;-69
2020/12/15 01:17:12;;;;;;;14.90;11.57;;;;;;;9.72;54.72;100224.30;1734946;80;21540;-70
2020/12/15 01:19:44;;;;;;;18.00;13.47;;;;;;;9.70;54.71;100230.25;1745996;80;21191;-69
2020/12/15 01:22:18;;;;;;;16.20;13.53;;;;;;;9.70;54.72;100234.72;1729762;80;21203;-70
2020/12/15 01:24:51;;;;;;;17.35;12.37;;;;;;;9.69;54.70;100231.21;1771665;80;21140;-71
2020/12/15 01:27:22;;;;;;;15.53;12.10;;;;;;;9.69;54.73;100228.56;1765551;80;21766;-70
2020/12/15 01:29:54;;;;;;;18.52;13.08;;;;;;;9.69;54.74;100235.70;1781232;80;22306;-70
2020/12/15 01:32:22;;;;;;;16.00;12.10;;;;;;;9.68;54.73;100233.55;1738209;81;21258;-70
2020/12/15 01:34:51;;;;;;;16.02;12.68;;;;;;;9.68;54.69;100225.58;1763604;80;21223;-70
2020/12/15 01:37:19;;;;;;;15.00;12.07;;;;;;;9.69;54.70;100225.08;1777678;80;21178;-70
2020/12/15 01:39:47;;;;;;;17.00;13.53;;;;;;;9.69;54.69;100230.39;1802165;78;21170;-69
2020/12/15 01:42:16;;;;;;;15.28;12.37;;;;;;;9.68;54.69;100229.56;1787695;78;21246;-71
2020/12/15 01:44:45;;;;;;;15.93;12.63;;;;;;;9.68;54.68;100233.55;1769098;80;21167;-70
2020/12/15 01:47:15;;;;;;;14.95;12.25;;;;;;;9.68;54.62;100236.20;1769275;80;21358;-71
2020/12/15 01:49:43;;;;;;;14.90;12.45;;;;;;;9.69;54.62;100237.02;1783148;78;21148;-70
2020/12/15 01:52:13;;;;;;;15.23;11.57;;;;;;;9.68;54.63;100230.03;1778561;78;21158;-71
2020/12/15 01:54:45;;;;;;;16.12;12.63;;;;;;;9.69;54.63;100237.02;1770980;80;21382;-70
2020/12/15 01:57:14;;;;;;;15.90;12.73;;;;;;;9.68;54.61;100233.55;1749963;80;21194;-70
2020/12/15 01:59:52;;;;;;;14.20;11.10;;;;;;;9.62;54.62;100225.69;1766596;79;21247;-71
2020/12/15 02:02:22;;;;;;;14.03;12.28;;;;;;;9.62;54.59;100217.73;1760099;80;21535;-71
2020/12/15 02:04:52;;;;;;;13.18;11.20;;;;;;;9.68;54.60;100234.02;1763851;80;21167;-71
2020/12/15 02:07:21;;;;;;;15.70;11.93;;;;;;;9.67;54.60;100230.53;1787855;79;21766;-71
2020/12/15 02:10:32;;;;;;;14.50;11.90;;;;;;;9.72;54.59;100231.42;1793525;79;28198;-70
2020/12/15 02:13:02;;;;;;;14.55;11.97;;;;;;;9.66;54.55;100232.86;1790524;79;21152;-70
2020/12/15 02:15:30;;;;;;;14.68;12.03;;;;;;;9.68;54.55;100226.91;1796702;79;21352;-71
2020/12/15 02:18:00;;;;;;;13.70;11.63;;;;;;;9.68;54.55;100224.73;1761585;80;21422;-71
2020/12/15 02:20:32;;;;;;;15.23;11.70;;;;;;;9.68;54.54;100225.58;1767702;80;22124;-70
2020/12/15 02:23:01;;;;;;;13.53;12.00;;;;;;;9.68;54.55;100221.60;1766963;80;21167;-69
2020/12/15 02:25:30;;;;;;;14.33;12.25;;;;;;;9.68;54.52;100221.60;1756628;80;21174;-70
2020/12/15 02:27:57;;;;;;;15.25;11.75;;;;;;;9.68;54.53;100220.75;1751379;80;21202;-71
2020/12/15 02:30:25;;;;;;;14.87;11.80;;;;;;;9.68;54.52;100222.08;1781073;80;21216;-72
2020/12/15 02:32:53;;;;;;;14.23;11.48;;;;;;;9.67;54.51;100218.59;1758650;80;21119;-70
2020/12/15 02:35:21;;;;;;;15.93;12.18;;;;;;;9.68;54.51;100219.42;1782316;80;21091;-70
2020/12/15 02:37:49;;;;;;;13.95;11.33;;;;;;;9.67;54.48;100218.59;1770396;80;21123;-71
2020/12/15 02:40:18;;;;;;;13.35;10.68;;;;;;;9.67;54.48;100210.64;1775699;80;21678;-69
2020/12/15 02:43:05;;;;;;;15.40;12.65;;;;;;;9.68;54.50;100216.77;1763427;80;21620;-69
2020/12/15 02:45:33;;;;;;;14.30;11.08;;;;;;;9.65;54.47;100217.41;1783902;80;21115;-70
2020/12/15 02:48:01;;;;;;;13.18;10.88;;;;;;;9.64;54.47;100217.09;1767225;80;21147;-70
2020/12/15 02:50:31;;;;;;;13.45;11.63;;;;;;;9.65;54.46;100216.59;1780177;80;21138;-68
2020/12/15 02:53:17;;;;;;;13.28;10.95;;;;;;;9.70;54.48;100218.30;1790554;77;28221;-69
2020/12/15 02:55:45;;;;;;;14.38;10.80;;;;;;;9.65;54.45;100214.76;1786684;78;21127;-70
2020/12/15 02:58:14;;;;;;;13.58;11.38;;;;;;;9.64;54.46;100213.11;1800343;77;21264;-69
2020/12/15 03:00:44;;;;;;;14.45;11.05;;;;;;;9.65;54.46;100220.06;1751348;79;21185;-69
2020/12/15 03:03:11;;;;;;;12.82;11.00;;;;;;;9.66;54.45;100219.59;1761692;79;21159;-69
2020/12/15 03:05:50;;;;;;;13.75;11.45;;;;;;;9.70;54.45;100222.28;1796943;77;28725;-70
2020/12/15 03:08:19;;;;;;;12.05;10.68;;;;;;;9.65;54.44;100220.06;1758844;78;21188;-68
2020/12/15 03:10:48;;;;;;;14.25;11.48;;;;;;;9.65;54.40;100221.39;1785234;78;21567;-69
2020/12/15 03:13:15;;;;;;;13.48;11.25;;;;;;;9.67;54.42;100224.40;1810668;78;21822;-69
2020/12/15 03:15:43;;;;;;;13.78;11.35;;;;;;;9.67;54.38;100231.86;1775656;80;21134;-70
2020/12/15 03:18:12;;;;;;;13.45;11.08;;;;;;;9.65;54.38;100225.88;1806816;78;21213;-69
2020/12/15 03:20:46;;;;;;;14.20;11.75;;;;;;;9.68;54.33;100226.05;1806175;77;21138;-70
2020/12/15 03:23:10;;;;;;;16.10;11.97;;;;;;;9.68;54.36;100224.73;1811588;77;23681;-70
2020/12/15 03:25:38;;;;;;;13.88;11.35;;;;;;;9.67;54.33;100228.38;1807861;77;21140;-71
2020/12/15 03:28:07;;;;;;;12.65;10.85;;;;;;;9.68;54.36;100231.36;1791088;78;21143;-72
2020/12/15 03:30:36;;;;;;;13.85;11.35;;;;;;;9.68;54.31;100234.02;1801555;77;21338;-70
2020/12/15 03:33:04;;;;;;;13.65;11.05;;;;;;;9.68;54.32;100241.97;1786339;78;21151;-70
2020/12/15 03:35:32;;;;;;;12.10;10.20;;;;;;;9.68;54.33;100240.64;1787632;78;21741;-71
2020/12/15 03:38:01;;;;;;;13.28;10.75;;;;;;;9.68;54.30;100244.63;1778960;78;21172;-70
2020/12/15 03:40:31;;;;;;;12.58;10.70;;;;;;;9.67;54.28;100242.47;1784156;78;21182;-71
2020/12/15 03:43:17;;;;;;;12.05;10.00;;;;;;;9.65;54.32;100245.77;1783737;78;21218;-70
2020/12/15 03:45:46;;;;;;;12.85;10.98;;;;;;;9.67;54.31;100249.10;1791847;78;21163;-70
2020/12/15 03:48:14;;;;;;;14.33;11.93;;;;;;;9.67;54.32;100250.43;1774535;78;21409;-70
2020/12/15 03:50:42;;;;;;;12.98;10.80;;;;;;;9.65;54.31;100255.88;1799613;78;21132;-70
2020/12/15 03:53:11;;;;;;;12.25;10.35;;;;;;;9.67;54.31;100258.39;1793965;78;21156;-69
2020/12/15 03:55:40;;;;;;;13.78;11.00;;;;;;;9.67;54.30;100256.23;1783734;80;21155;-68
2020/12/15 03:58:09;;;;;;;13.10;10.95;;;;;;;9.67;54.28;100257.06;1802743;77;21595;-69
2020/12/15 04:00:48;;;;;;;13.78;10.80;;;;;;;9.71;54.29;100256.27;1786838;77;28331;-69
2020/12/15 04:03:24;;;;;;;12.75;11.03;;;;;;;9.67;54.25;100259.72;1800961;79;21186;-68
2020/12/15 04:06:13;;;;;;;12.90;11.12;;;;;;;9.71;54.27;100261.58;1758262;78;28281;-70
2020/12/15 04:08:42;;;;;;;12.58;10.78;;;;;;;9.67;54.26;100263.70;1738991;81;21178;-70
2020/12/15 04:11:11;;;;;;;11.93;10.38;;;;;;;9.67;54.24;100269.00;1748270;81;22111;-69
2020/12/15 04:13:42;;;;;;;12.78;11.18;;;;;;;9.67;54.23;100266.84;1754107;81;21182;-70
2020/12/15 04:16:11;;;;;;;12.95;11.22;;;;;;;9.67;54.22;100272.16;1749938;81;21171;-69
2020/12/15 04:18:40;;;;;;;12.13;10.60;;;;;;;9.67;54.21;100277.45;1762698;81;21158;-70
2020/12/15 04:21:10;;;;;;;12.55;11.12;;;;;;;9.65;54.23;100277.09;1748036;81;21186;-70
2020/12/15 04:23:38;;;;;;;13.43;11.12;;;;;;;9.66;54.22;100280.61;1742744;79;21435;-69
2020/12/15 04:26:07;;;;;;;12.05;10.53;;;;;;;9.64;54.21;100278.10;1745115;81;21162;-68
2020/12/15 04:28:36;;;;;;;11.57;10.35;;;;;;;9.66;54.21;100283.27;1744310;81;21167;-70
2020/12/15 04:31:05;;;;;;;11.55;10.20;;;;;;;9.66;54.22;100289.89;1731304;81;21119;-69
2020/12/15 04:33:33;;;;;;;12.13;10.65;;;;;;;9.67;54.21;100290.22;1747519;80;21157;-69
2020/12/15 04:36:00;;;;;;;12.88;10.43;;;;;;;9.67;54.19;100281.44;1751753;79;21363;-70
2020/12/15 04:38:28;;;;;;;12.13;10.78;;;;;;;9.67;54.21;100288.89;1763068;80;21118;-70
2020/12/15 04:40:57;;;;;;;12.18;10.53;;;;;;;9.68;54.18;100287.07;1753597;79;21185;-70
2020/12/15 04:43:27;;;;;;;11.53;9.93;;;;;;;9.67;54.19;100290.22;1740340;81;21183;-70
2020/12/15 04:45:55;;;;;;;10.85;9.58;;;;;;;9.67;54.17;100287.57;1721620;81;21184;-71
2020/12/15 04:48:24;;;;;;;11.22;10.03;;;;;;;9.67;54.13;100296.86;1742912;81;21212;-70
2020/12/15 04:50:58;;;;;;;11.63;9.90;;;;;;;9.67;54.15;100301.33;1740637;81;21211;-71
2020/12/15 04:53:28;;;;;;;10.32;9.03;;;;;;;9.67;54.15;100300.83;1759129;81;21350;-71
2020/12/15 04:56:11;;;;;;;11.40;9.85;;;;;;;9.71;54.16;100297.40;1791265;77;28198;-70
2020/12/15 04:58:38;;;;;;;11.05;9.85;;;;;;;9.65;54.15;100294.34;1793115;78;25132;-70
2020/12/15 05:01:06;;;;;;;11.18;9.85;;;;;;;9.65;54.17;100297.00;1789228;78;21200;-70
2020/12/15 05:03:36;;;;;;;11.65;9.45;;;;;;;9.65;54.17;100298.83;1785143;78;21157;-72
2020/12/15 05:06:04;;;;;;;11.55;10.28;;;;;;;9.67;54.16;100300.01;1758194;78;21128;-69
2020/12/15 05:08:32;;;;;;;11.70;9.90;;;;;;;9.66;54.14;100300.51;1769576;79;21170;-69
2020/12/15 05:11:02;;;;;;;10.68;9.45;;;;;;;9.66;54.10;100301.84;1740981;79;21142;-70
2020/12/15 05:13:42;;;;;;;11.18;9.78;;;;;;;9.71;54.11;100302.20;1801900;77;28212;-70
2020/12/15 05:16:10;;;;;;;10.35;8.98;;;;;;;9.68;54.12;100310.48;1757950;80;21112;-70
2020/12/15 05:18:47;;;;;;;11.57;9.78;;;;;;;9.71;54.13;100308.01;1804226;79;28243;-70
2020/12/15 05:21:18;;;;;;;11.22;9.53;;;;;;;9.66;54.09;100311.13;1773154;80;21145;-70
2020/12/15 05:23:54;;;;;;;10.72;9.45;;;;;;;9.65;54.08;100314.24;1769530;80;21348;-69
2020/12/15 05:26:25;;;;;;;11.30;9.58;;;;;;;9.68;54.09;100321.56;1807652;79;21167;-70
2020/12/15 05:29:06;;;;;;;11.35;10.13;;;;;;;9.65;54.07;100327.51;1760955;79;21203;-71
2020/12/15 05:31:42;;;;;;;10.50;9.40;;;;;;;9.67;54.05;100334.50;1755522;80;21120;-70
2020/12/15 05:34:31;;;;;;;11.35;9.60;;;;;;;9.69;54.08;100332.53;1802277;77;28260;-71
2020/12/15 05:37:17;;;;;;;9.63;8.63;;;;;;;9.64;54.06;100340.94;1767971;78;21174;-71
2020/12/15 05:40:02;;;;;;;9.83;8.78;;;;;;;9.68;54.14;100340.12;1809146;78;28180;-70
2020/12/15 05:42:32;;;;;;;11.38;9.65;;;;;;;9.62;54.13;100347.72;1793572;78;21124;-71
2020/12/15 05:45:00;;;;;;;11.93;10.65;;;;;;;9.62;54.12;100344.23;1785106;79;22379;-70
2020/12/15 05:47:28;;;;;;;10.75;9.40;;;;;;;9.61;54.11;100347.36;1747957;81;21153;-71
2020/12/15 05:49:58;;;;;;;10.18;8.93;;;;;;;9.63;54.13;100348.05;1780772;79;21186;-70
2020/12/15 05:52:29;;;;;;;11.20;10.00;;;;;;;9.63;54.06;100356.50;1787041;79;21591;-70
2020/12/15 05:55:06;;;;;;;10.70;9.55;;;;;;;9.62;54.08;100349.05;1776357;79;21377;-71
2020/12/15 05:57:34;;;;;;;10.68;9.58;;;;;;;9.63;54.09;100366.61;1776079;79;22345;-70
2020/12/15 06:00:10;;;;;;;9.80;8.83;;;;;;;9.64;54.05;100363.49;1783515;79;21183;-70
2020/12/15 06:02:41;;;;;;;10.85;9.53;;;;;;;9.63;54.06;100362.63;1769994;79;21162;-70
2020/12/15 06:05:09;;;;;;;10.20;9.05;;;;;;;9.63;54.07;100374.57;1777578;79;21186;-69
2020/12/15 06:07:37;;;;;;;11.15;9.55;;;;;;;9.64;54.06;100371.45;1783713;79;21632;-70
2020/12/15 06:10:05;;;;;;;10.48;9.38;;;;;;;9.64;54.06;100378.08;1780085;79;21570;-71
2020/12/15 06:12:33;;;;;;;10.82;9.73;;;;;;;9.64;54.05;100385.55;1775940;79;21146;-70
2020/12/15 06:15:00;;;;;;;11.60;9.58;;;;;;;9.64;54.04;100389.52;1776090;79;21176;-69
2020/12/15 06:17:27;;;;;;;12.73;10.13;;;;;;;9.65;54.01;100394.33;1779142;79;21181;-69
2020/12/15 06:19:57;;;;;;;10.65;9.25;;;;;;;9.65;54.01;100395.66;1779287;79;21103;-69
2020/12/15 06:22:25;;;;;;;10.08;9.03;;;;;;;9.64;54.01;100394.83;1782879;79;22294;-69
2020/12/15 06:24:57;;;;;;;9.88;8.38;;;;;;;9.65;54.01;100393.00;1784510;79;21100;-71
2020/12/15 06:27:35;;;;;;;9.98;8.55;;;;;;;9.67;54.02;100400.82;1778925;79;22336;-70
2020/12/15 06:30:05;;;;;;;10.23;9.23;;;;;;;9.67;53.99;100403.48;1780482;79;21183;-71
2020/12/15 06:32:33;;;;;;;10.48;9.13;;;;;;;9.66;53.99;100398.67;1793716;79;21607;-71
2020/12/15 06:35:10;;;;;;;10.45;9.35;;;;;;;9.65;54.02;100403.11;1797178;79;21381;-70
2020/12/15 06:37:35;;;;;;;10.08;8.80;;;;;;;9.65;53.99;100411.08;1766335;79;21159;-71
2020/12/15 06:40:05;;;;;;;10.55;9.18;;;;;;;9.68;53.96;100413.09;1759705;79;21135;-70
2020/12/15 06:42:32;;;;;;;10.40;9.30;;;;;;;9.68;53.95;100410.44;1746481;81;21663;-70
2020/12/15 06:45:07;;;;;;;10.43;9.35;;;;;;;9.68;54.00;100415.74;1707422;81;21147;-69
2020/12/15 06:47:35;;;;;;;10.25;9.15;;;;;;;9.69;53.94;100420.08;1761227;81;23508;-70
2020/12/15 06:50:16;;;;;;;10.68;9.03;;;;;;;9.68;53.92;100428.54;1749680;80;21595;-70
2020/12/15 06:52:45;;;;;;;10.93;9.30;;;;;;;9.69;53.92;100428.87;1744132;81;21178;-70
2020/12/15 06:55:13;;;;;;;11.03;9.10;;;;;;;9.69;53.90;100435.50;1739125;80;21394;-71
2020/12/15 06:57:42;;;;;;;10.28;8.63;;;;;;;9.70;53.93;100444.32;1760567;81;21147;-69
2020/12/15 07:00:11;;;;;;;9.53;8.38;;;;;;;9.70;53.91;100442.99;1761255;80;22771;-70
2020/12/15 07:02:39;;;;;;;11.28;9.15;;;;;;;9.70;53.91;100443.82;1763315;81;21133;-72
2020/12/15 07:05:25;;;;;;;10.05;9.05;;;;;;;9.70;53.90;100452.28;1730541;81;21187;-70
2020/12/15 07:07:54;;;;;;;12.00;9.93;;;;;;;9.71;53.92;100444.65;1754616;81;21167;-71
2020/12/15 07:10:23;;;;;;;10.60;9.48;;;;;;;9.70;53.90;100445.64;1756089;81;21218;-71
2020/12/15 07:12:50;;;;;;;10.53;9.43;;;;;;;9.71;53.90;100440.67;1744076;81;22273;-71
2020/12/15 07:15:19;;;;;;;12.07;9.83;;;;;;;9.72;53.89;100441.03;1755702;80;21184;-70
2020/12/15 07:17:50;;;;;;;11.33;9.33;;;;;;;9.71;53.90;100437.52;1758075;80;21203;-71
2020/12/15 07:20:21;;;;;;;11.48;9.35;;;;;;;9.72;53.85;100440.53;1753416;80;21155;-70
2020/12/15 07:22:48;;;;;;;10.25;8.25;;;;;;;9.73;53.86;100441.36;1756964;80;21159;-70
2020/12/15 07:25:16;;;;;;;10.10;8.95;;;;;;;9.73;53.87;100439.53;1757197;80;21282;-70
2020/12/15 07:27:44;;;;;;;11.65;9.55;;;;;;;9.74;53.85;100450.50;1753716;80;21162;-68
2020/12/15 07:30:15;;;;;;;11.33;9.70;;;;;;;9.74;53.81;100442.55;1761590;80;21115;-69
2020/12/15 07:32:43;;;;;;;10.68;9.20;;;;;;;9.75;53.81;100444.70;1758914;81;21139;-66
2020/12/15 07:35:22;;;;;;;11.28;9.43;;;;;;;9.75;53.83;100444.20;1762190;81;21119;-67
2020/12/15 07:37:56;;;;;;;10.45;9.13;;;;;;;9.76;53.80;100451.70;1763318;81;21293;-70
2020/12/15 07:40:28;;;;;;;11.57;9.48;;;;;;;9.77;53.81;100450.70;1746281;82;21175;-70
2020/12/15 07:43:01;;;;;;;10.85;9.15;;;;;;;9.76;53.80;100452.52;1742616;82;21119;-72
2020/12/15 07:45:30;;;;;;;11.97;9.55;;;;;;;9.77;53.79;100451.55;1741105;82;21438;-70
2020/12/15 07:47:58;;;;;;;10.88;9.20;;;;;;;9.76;53.81;100452.52;1744686;81;21207;-72
2020/12/15 07:50:28;;;;;;;11.53;10.23;;;;;;;9.78;53.77;100455.03;1746210;80;21561;-73
2020/12/15 07:52:56;;;;;;;10.48;8.93;;;;;;;9.79;53.76;100451.38;1747829;82;21192;-70
2020/12/15 07:55:23;;;;;;;12.30;9.43;;;;;;;9.80;53.75;100458.38;1743799;82;21199;-74
2020/12/15 07:57:51;;;;;;;11.10;9.55;;;;;;;9.80;53.75;100453.90;1749932;82;21171;-73
2020/12/15 08:00:21;;;;;;;11.48;9.73;;;;;;;9.79;53.72;100448.73;1748997;80;21195;-70
2020/12/15 08:02:51;;;;;;;10.78;9.40;;;;;;;9.81;53.76;100454.26;1748080;82;21400;-70
2020/12/15 08:05:21;;;;;;;13.22;10.10;;;;;;;9.82;53.74;100460.39;1750526;82;21616;-70
2020/12/15 08:07:57;;;;;;;12.18;9.95;;;;;;;9.83;53.71;100464.70;1743798;82;21163;-71
2020/12/15 08:10:28;;;;;;;10.93;9.38;;;;;;;9.83;53.71;100461.58;1745098;82;21134;-70
2020/12/15 08:12:56;;;;;;;10.43;8.90;;;;;;;9.85;53.70;100462.77;1749093;82;21627;-71
2020/12/15 08:15:26;;;;;;;10.53;9.23;;;;;;;9.84;53.71;100461.08;1744952;82;21436;-72
2020/12/15 08:17:53;;;;;;;11.35;9.45;;;;;;;9.85;53.67;100462.77;1749900;82;21187;-69
2020/12/15 08:20:29;;;;;;;11.12;9.25;;;;;;;9.87;53.65;100468.77;1746822;82;21203;-70
2020/12/15 08:23:11;;;;;;;10.23;9.10;;;;;;;9.88;53.62;100464.28;1746419;82;21234;-68
2020/12/15 08:25:45;;;;;;;11.12;9.43;;;;;;;9.88;53.61;100467.77;1744518;82;21152;-68
2020/12/15 08:28:24;;;;;;;12.10;10.65;;;;;;;9.88;53.62;100467.77;1745766;82;21390;-68
2020/12/15 08:30:54;;;;;;;10.48;9.15;;;;;;;9.88;53.63;100465.11;1754962;80;21135;-67
2020/12/15 08:33:24;;;;;;;11.73;9.70;;;;;;;9.89;53.63;100463.28;1750062;82;21522;-69
2020/12/15 08:35:52;;;;;;;10.82;9.28;;;;;;;9.90;53.61;100466.30;1750366;82;21187;-68
2020/12/15 08:38:20;;;;;;;11.48;10.15;;;;;;;9.91;53.59;100466.63;1739670;82;21206;-69
2020/12/15 08:41:02;;;;;;;12.63;9.90;;;;;;;9.93;53.62;100472.62;1753661;81;22618;-70
2020/12/15 08:43:29;;;;;;;11.75;9.83;;;;;;;9.93;53.58;100470.83;1753201;80;21184;-69
2020/12/15 08:45:58;;;;;;;11.75;9.73;;;;;;;9.95;53.59;100479.98;1759025;80;21564;-69
2020/12/15 08:48:26;;;;;;;11.57;10.32;;;;;;;9.96;53.58;100477.16;1751143;80;21662;-68
2020/12/15 08:50:53;;;;;;;12.15;10.13;;;;;;;9.96;53.55;100473.17;1743248;81;21176;-66
2020/12/15 08:53:21;;;;;;;10.88;9.75;;;;;;;9.97;53.52;100473.53;1781056;79;21379;-72
2020/12/15 08:55:49;;;;;;;10.43;9.33;;;;;;;9.98;53.51;100473.86;1783183;80;21131;-72
2020/12/15 08:58:17;;;;;;;11.78;9.43;;;;;;;9.98;53.48;100477.02;1768225;80;21115;-69
2020/12/15 09:00:46;;;;;;;12.73;9.70;;;;;;;9.99;53.48;100471.56;1780076;80;21480;-66
2020/12/15 09:03:17;;;;;;;11.45;9.90;;;;;;;10.01;53.47;100478.06;1781597;80;21211;-69
2020/12/15 09:05:56;;;;;;;12.00;9.70;;;;;;;10.01;53.44;100476.23;1785276;80;21448;-67
2020/12/15 09:08:25;;;;;;;11.57;10.18;;;;;;;10.03;53.45;100477.42;1770578;80;21308;-69
2020/12/15 09:10:55;;;;;;;11.40;8.93;;;;;;;10.04;53.44;100472.44;1780378;80;21129;-69
2020/12/15 09:13:23;;;;;;;11.20;9.90;;;;;;;10.04;53.41;100469.78;1776796;80;21536;-70
2020/12/15 09:15:55;;;;;;;12.90;10.28;;;;;;;10.04;53.42;100473.77;1780820;80;21163;-67
2020/12/15 09:18:35;;;;;;;11.50;9.93;;;;;;;10.06;53.38;100473.63;1776642;80;21377;-69
2020/12/15 09:21:12;;;;;;;13.18;10.88;;;;;;;10.06;53.39;100470.47;1781807;80;21183;-68
2020/12/15 09:23:53;;;;;;;12.05;10.20;;;;;;;10.06;53.41;100473.63;1786033;80;21655;-67
2020/12/15 09:26:22;;;;;;;12.78;10.10;;;;;;;10.06;53.42;100466.98;1751767;81;21187;-69
2020/12/15 09:28:50;;;;;;;13.15;10.58;;;;;;;10.06;53.41;100467.82;1770287;80;21575;-68
2020/12/15 09:31:19;;;;;;;10.85;9.60;;;;;;;10.06;53.40;100474.95;1775864;80;21528;-70
2020/12/15 09:33:46;;;;;;;11.90;10.25;;;;;;;10.06;53.38;100466.49;1778635;80;21198;-70
2020/12/15 09:36:15;;;;;;;12.23;10.25;;;;;;;10.07;53.37;100461.55;1771336;80;21195;-70
2020/12/15 09:38:42;;;;;;;10.82;9.65;;;;;;;10.09;53.33;100470.69;1765949;79;21227;-70
2020/12/15 09:41:10;;;;;;;14.75;11.60;;;;;;;10.08;53.32;100468.50;1770733;80;21199;-71
2020/12/15 09:43:37;;;;;;;11.30;9.45;;;;;;;10.10;53.35;100467.04;1769685;80;21401;-69
2020/12/15 09:46:04;;;;;;;12.07;10.00;;;;;;;10.11;53.35;100471.37;1773469;80;21143;-65
2020/12/15 09:48:32;;;;;;;11.45;9.70;;;;;;;10.11;53.32;100471.37;1757247;80;21175;-68
2020/12/15 09:51:00;;;;;;;13.65;10.65;;;;;;;10.12;53.29;100471.23;1752439;80;21171;-66
2020/12/15 09:53:27;;;;;;;11.93;10.32;;;;;;;10.13;53.28;100465.43;1780471;80;21147;-67
2020/12/15 09:55:56;;;;;;;13.38;10.45;;;;;;;10.14;53.26;100468.41;1757807;81;21425;-67
2020/12/15 09:58:28;;;;;;;13.60;9.95;;;;;;;10.14;53.26;100469.27;1772358;80;21191;-68
2020/12/15 10:00:57;;;;;;;13.58;11.00;;;;;;;10.15;53.24;100468.27;1763921;80;21168;-68
2020/12/15 10:03:24;;;;;;;13.10;10.23;;;;;;;10.16;53.21;100464.65;1768948;80;21208;-68
2020/12/15 10:05:52;;;;;;;12.70;10.58;;;;;;;10.17;53.22;100464.97;1767705;81;21158;-68
2020/12/15 10:08:22;;;;;;;14.40;10.60;;;;;;;10.18;53.23;100464.50;1757827;81;21215;-67
2020/12/15 10:10:50;;;;;;;13.58;10.85;;;;;;;10.19;53.22;100462.17;1758163;81;21940;-67
2020/12/15 10:13:17;;;;;;;14.05;10.53;;;;;;;10.19;53.21;100458.19;1757007;81;21087;-66
2020/12/15 10:15:44;;;;;;;12.75;10.68;;;;;;;10.20;53.17;100458.55;1767580;81;21142;-66
2020/12/15 10:18:12;;;;;;;12.98;10.50;;;;;;;10.19;53.17;100456.37;1754202;81;21166;-65
2020/12/15 10:20:40;;;;;;;12.13;10.13;;;;;;;10.21;53.18;100455.73;1765512;81;21279;-67
2020/12/15 10:23:07;;;;;;;12.58;9.93;;;;;;;10.22;53.14;100457.91;1759923;81;21194;-67
2020/12/15 10:25:34;;;;;;;14.68;11.73;;;;;;;10.23;53.14;100458.23;1761029;81;21143;-68
2020/12/15 10:28:02;;;;;;;13.22;11.28;;;;;;;10.24;53.14;100459.42;1755731;81;21218;-68
2020/12/15 10:30:30;;;;;;;12.85;11.03;;;;;;;10.26;53.15;100459.75;1764595;81;21162;-67
2020/12/15 10:32:57;;;;;;;13.32;10.80;;;;;;;10.26;53.12;100453.11;1761125;81;21356;-66
2020/12/15 10:35:24;;;;;;;13.22;11.33;;;;;;;10.21;53.07;100441.12;1747486;81;21206;-66
2020/12/15 10:37:51;;;;;;;13.22;11.28;;;;;;;10.23;53.03;100448.95;1760854;81;21210;-66
2020/12/15 10:40:18;;;;;;;13.65;11.38;;;;;;;10.27;52.99;100450.31;1744688;81;22044;-67
2020/12/15 10:42:46;;;;;;;14.20;11.08;;;;;;;10.28;52.97;100447.19;1750643;80;21165;-67
2020/12/15 10:45:13;;;;;;;12.95;11.33;;;;;;;10.28;52.93;100449.84;1701891;84;21402;-67
2020/12/15 10:47:40;;;;;;;14.33;12.40;;;;;;;10.27;52.92;100455.62;1729116;82;21912;-66
2020/12/15 10:50:08;;;;;;;13.05;11.43;;;;;;;10.28;52.91;100462.62;1714459;82;21186;-64
2020/12/15 10:52:35;;;;;;;14.87;11.65;;;;;;;10.28;52.93;100464.45;1729030;82;21131;-68
2020/12/15 10:55:04;;;;;;;17.02;13.68;;;;;;;10.30;52.90;100463.81;1722457;82;21222;-65
2020/12/15 10:57:31;;;;;;;16.55;13.10;;;;;;;10.28;52.87;100459.14;1706187;84;21262;-65
2020/12/15 10:59:59;;;;;;;16.00;13.15;;;;;;;10.29;52.91;100462.95;1751754;81;21186;-68
2020/12/15 11:02:26;;;;;;;15.60;12.25;;;;;;;10.30;52.91;100467.80;1758517;81;21491;-68
2020/12/15 11:04:54;;;;;;;15.80;12.93;;;;;;;10.30;52.91;100473.11;1759364;81;21223;-66
2020/12/15 11:07:22;;;;;;;14.95;11.78;;;;;;;10.32;52.91;100472.49;1755836;81;21147;-68
2020/12/15 11:09:50;;;;;;;14.30;11.75;;;;;;;10.32;52.92;100471.99;1758691;81;21376;-68
2020/12/15 11:12:17;;;;;;;14.40;12.50;;;;;;;10.34;52.89;100477.98;1759699;81;21186;-68
2020/12/15 11:14:44;;;;;;;14.65;11.85;;;;;;;10.34;52.87;100475.84;1757373;81;21150;-65
2020/12/15 11:17:12;;;;;;;15.48;12.20;;;;;;;10.35;52.83;100481.47;1744693;81;21369;-66
2020/12/15 11:19:39;;;;;;;15.03;12.65;;;;;;;10.35;52.86;100478.34;1757594;81;21123;-67
2020/12/15 11:22:06;;;;;;;14.18;12.20;;;;;;;10.36;52.83;100479.17;1750019;81;21362;-67
2020/12/15 11:24:36;;;;;;;15.48;12.70;;;;;;;10.36;52.85;100480.00;1697063;84;21193;-66
2020/12/15 11:27:04;;;;;;;16.25;12.82;;;;;;;10.36;52.82;100481.33;1694454;83;21433;-66
2020/12/15 11:29:31;;;;;;;16.67;13.00;;;;;;;10.36;52.82;100485.31;1695678;84;21120;-66
2020/12/15 11:31:58;;;;;;;16.25;13.50;;;;;;;10.36;52.85;100484.48;1727003;82;21163;-65